createdAt,value
2022-07-25T00:00:04.084Z,25.7
2022-07-25T00:15:02.203Z,25.7
2022-07-25T00:30:05.091Z,25.7
2022-07-25T00:45:06.110Z,25.7
2022-07-25T01:00:02.498Z,25.7
2022-07-25T01:15:02.354Z,25.6
2022-07-25T01:30:05.260Z,25.7
2022-07-25T01:45:03.241Z,25.7
2022-07-25T02:00:04.527Z,25.7
2022-07-25T02:15:02.115Z,25.7
2022-07-25T02:30:04.538Z,25.7
2022-07-25T02:45:04.121Z,25.7
2022-07-25T03:00:05.230Z,25.8
2022-07-25T03:15:04.225Z,25.7
2022-07-25T03:30:04.330Z,25.7
2022-07-25T03:45:02.463Z,25.8
2022-07-25T04:00:02.347Z,25.7
2022-07-25T04:15:03.253Z,25.8
2022-07-25T04:30:02.566Z,25.8
2022-07-25T04:45:06.435Z,25.8
2022-07-25T05:00:05.145Z,25.8
2022-07-25T05:15:06.136Z,25.8
2022-07-25T05:30:04.559Z,25.8
2022-07-25T05:45:04.124Z,25.8
2022-07-25T06:00:04.292Z,25.8
2022-07-25T06:15:05.438Z,25.8
2022-07-25T06:30:02.445Z,25.8
2022-07-25T06:45:02.350Z,25.7
2022-07-25T07:00:04.212Z,25.8
2022-07-25T07:15:04.340Z,25.7
2022-07-25T07:30:03.457Z,25.7
2022-07-25T07:45:03.186Z,25.7
2022-07-25T08:00:02.465Z,25.7
2022-07-25T08:20:02.062Z,25.7
2022-07-25T08:35:06.403Z,25.7
2022-07-25T08:50:05.234Z,25.7
2022-07-25T09:05:03.147Z,25.7
2022-07-25T09:20:02.467Z,25.7
2022-07-25T09:35:02.358Z,25.8
2022-07-25T09:50:06.239Z,25.8
2022-07-25T10:05:02.097Z,25.9
2022-07-25T10:20:05.518Z,25.9
2022-07-25T10:35:06.510Z,26
2022-07-25T10:50:05.358Z,26
2022-07-25T11:05:05.327Z,26.1
2022-07-25T11:20:04.291Z,26.2
2022-07-25T11:35:02.447Z,26.2
2022-07-25T11:50:05.308Z,26.3
2022-07-25T12:05:06.315Z,26.3
2022-07-25T12:20:04.163Z,26.3
2022-07-25T12:35:04.272Z,26.3
2022-07-25T12:50:02.401Z,26.4
2022-07-25T13:05:04.304Z,26.4
2022-07-25T13:20:06.428Z,26.5
2022-07-25T13:35:02.233Z,26.5
2022-07-25T13:50:06.128Z,26.5
2022-07-25T14:05:05.557Z,26.6
2022-07-25T14:20:04.522Z,26.7
2022-07-25T14:35:05.105Z,26.7
2022-07-25T14:50:04.622Z,26.7
2022-07-25T15:10:03.501Z,26.7
2022-07-25T15:25:03.243Z,26.7
2022-07-25T15:40:04.559Z,26.7
2022-07-25T16:00:06.419Z,26.7
2022-07-25T16:15:06.277Z,26.6
2022-07-25T16:30:02.119Z,26.6
2022-07-25T16:45:02.581Z,26.5
2022-07-25T17:00:02.456Z,26.6
2022-07-25T17:15:04.356Z,26.6
2022-07-25T17:30:03.491Z,26.8
2022-07-25T17:45:05.232Z,26.9
2022-07-25T18:00:03.209Z,26.9
2022-07-25T18:15:05.536Z,26.9
2022-07-25T18:30:04.463Z,26.9
2022-07-25T18:45:03.095Z,26.9
2022-07-25T19:00:03.366Z,26.8
2022-07-25T19:15:03.133Z,26.8
2022-07-25T19:35:05.147Z,26.7
2022-07-25T19:50:05.111Z,26.7
2022-07-25T20:05:04.076Z,26.7
2022-07-25T20:20:02.173Z,26.7
2022-07-25T20:35:02.040Z,26.7
2022-07-25T20:55:03.136Z,26.8
2022-07-25T21:10:06.327Z,26.8
2022-07-25T21:30:02.485Z,26.8
2022-07-25T21:45:04.370Z,26.8
2022-07-25T22:00:05.513Z,26.7
2022-07-25T22:15:06.422Z,26.7
2022-07-25T22:30:06.253Z,26.7
2022-07-25T22:45:03.073Z,26.7
2022-07-25T23:00:03.399Z,26.7
2022-07-25T23:15:06.121Z,26.8
2022-07-25T23:30:04.511Z,26.8
2022-07-25T23:45:02.082Z,26.8
